Alamosa, Colorado
Current Conditions -  °F | °C
As of 10:52 PM on Saturday 22 Nov 2014 (Local Time) from KALS Reporting Station
Clear Clear  
Wind Chill: 19°   Ceiling: Unl
Heat Index: 27°   Visibility: 10mi
Dew Point: 15°   Wind: 7mph
Humidity: 61%   Direction: 20°NNE
Pressure: 29.75"   Gusts: NA
Location:  37.47°N, 105.87°W
Report Text: KALS 230552Z AUTO 02006KT 10SM CLR M03/M09 A2975 RMK AO2 SLP071 T10281094 10039 21067 56021
Loading
Personal Weather Stations






























Interactive Weather Map New forecast layout! Learn more

10-Day Weather Forecast

Advertisements
Track Severe Weather on mobile